Time;durP1;ratioP1;P1;durP2;ratioP2;P2;SDS_P1;SDS_P2;PMS_P1;PMS_P2;Temp;Humidity;BMP_temperature;BMP_pressure;BME280_temperature;BME280_humidity;BME280_pressure;Samples;Min_cycle;Max_cycle;Signal;HPM_P1;HPM_P2
2022/04/25 00:02:29;;;;;;;12.88;5.47;;;;;;;9.13;100.00;100869.78;5204597;28;20533;-70
2022/04/25 00:04:59;;;;;;;14.40;5.10;;;;;;;9.04;100.00;100871.56;5200008;28;20037;-70
2022/04/25 00:07:30;;;;;;;11.27;5.07;;;;;;;8.97;100.00;100862.47;5202881;28;20067;-70
2022/04/25 00:10:01;;;;;;;11.30;5.53;;;;;;;8.95;100.00;100860.94;5203000;28;20124;-70
2022/04/25 00:12:31;;;;;;;11.88;5.50;;;;;;;8.88;100.00;100857.19;5203035;28;20025;-70
2022/04/25 00:15:02;;;;;;;15.75;4.97;;;;;;;8.85;100.00;100861.03;5201571;28;20030;-70
2022/04/25 00:17:32;;;;;;;13.32;5.20;;;;;;;8.83;100.00;100868.38;5202709;28;20386;-70
2022/04/25 00:20:05;;;;;;;11.95;5.60;;;;;;;8.83;100.00;100865.69;5198474;28;20561;-71
2022/04/25 00:22:36;;;;;;;16.80;5.82;;;;;;;8.77;100.00;100866.31;5197744;28;20177;-70
2022/04/25 00:25:07;;;;;;;11.98;6.13;;;;;;;8.68;100.00;100865.38;5202394;28;20025;-70
2022/04/25 00:27:37;;;;;;;20.77;5.78;;;;;;;8.64;100.00;100858.69;5202066;28;20232;-70
2022/04/25 00:30:08;;;;;;;13.45;5.35;;;;;;;8.57;100.00;100861.13;5202818;28;20427;-70
2022/04/25 00:32:39;;;;;;;9.05;5.15;;;;;;;8.50;100.00;100857.38;5202530;28;20076;-70
2022/04/25 00:35:09;;;;;;;12.93;5.90;;;;;;;8.46;100.00;100866.69;5202444;28;20033;-71
2022/04/25 00:37:40;;;;;;;13.88;6.13;;;;;;;8.42;100.00;100867.16;5202191;28;20033;-71
2022/04/25 00:40:10;;;;;;;10.38;5.82;;;;;;;8.39;100.00;100870.16;5202200;28;20029;-71
2022/04/25 00:42:41;;;;;;;12.05;5.45;;;;;;;8.39;100.00;100865.63;5202678;28;20065;-70
2022/04/25 00:45:13;;;;;;;14.43;6.22;;;;;;;8.32;100.00;100867.19;5202325;28;20045;-71
2022/04/25 00:47:45;;;;;;;16.23;6.07;;;;;;;8.27;100.00;100861.44;5202662;28;20703;-71
2022/04/25 00:50:16;;;;;;;14.98;5.43;;;;;;;8.23;100.00;100862.75;5202760;28;20021;-72
2022/04/25 00:52:46;;;;;;;13.15;6.07;;;;;;;8.20;100.00;100861.22;5202368;28;20023;-71
2022/04/25 00:55:17;;;;;;;16.05;6.13;;;;;;;8.10;100.00;100863.13;5201420;28;20032;-71
2022/04/25 00:57:50;;;;;;;12.20;6.07;;;;;;;8.09;100.00;100860.59;5202908;28;20048;-71
2022/04/25 01:00:21;;;;;;;15.10;5.95;;;;;;;7.99;100.00;100860.66;5196041;28;20117;-71
2022/04/25 01:02:52;;;;;;;9.82;5.50;;;;;;;7.97;100.00;100859.94;5202345;28;20159;-71
2022/04/25 01:05:22;;;;;;;13.73;7.07;;;;;;;7.93;100.00;100859.44;5203016;28;20027;-70
2022/04/25 01:07:53;;;;;;;19.40;6.50;;;;;;;7.85;100.00;100864.66;5202864;28;20567;-70
2022/04/25 01:10:23;;;;;;;21.35;6.10;;;;;;;7.74;100.00;100856.84;5203072;28;20032;-70
2022/04/25 01:12:54;;;;;;;16.70;7.28;;;;;;;7.73;100.00;100860.47;5205575;28;20092;-70
2022/04/25 01:15:24;;;;;;;17.40;6.70;;;;;;;7.75;100.00;100858.53;5204685;28;20029;-71
2022/04/25 01:17:56;;;;;;;14.93;6.63;;;;;;;7.80;100.00;100864.25;5206437;28;20459;-70
2022/04/25 01:20:26;;;;;;;11.95;6.57;;;;;;;7.72;100.00;100862.31;5204805;28;20029;-70
2022/04/25 01:28:54;;;;;;;16.10;7.47;;;;;;;7.49;100.00;100863.69;5206102;28;20156;-70
2022/04/25 01:31:24;;;;;;;12.90;6.50;;;;;;;7.46;100.00;100859.47;5206224;28;20139;-72
2022/04/25 01:33:55;;;;;;;18.13;6.72;;;;;;;7.44;100.00;100857.94;5206017;28;20033;-72
2022/04/25 01:36:26;;;;;;;21.33;7.72;;;;;;;7.42;100.00;100866.06;5205201;28;20027;-71
2022/04/25 01:38:58;;;;;;;16.20;7.68;;;;;;;7.41;100.00;100861.72;5205920;28;20033;-71
2022/04/25 01:41:29;;;;;;;13.57;8.02;;;;;;;7.39;100.00;100863.72;5204886;28;20033;-70
2022/04/25 01:43:59;;;;;;;19.83;8.05;;;;;;;7.50;100.00;100873.38;5205971;28;20033;-71
2022/04/25 01:46:30;;;;;;;17.85;7.65;;;;;;;7.44;100.00;100872.13;5197496;28;20028;-70
2022/04/25 01:49:01;;;;;;;16.05;7.07;;;;;;;7.37;100.00;100868.34;5205528;28;20478;-70
2022/04/25 01:51:32;;;;;;;19.17;7.13;;;;;;;7.30;100.00;100875.25;5205790;28;20029;-71
2022/04/25 01:54:04;;;;;;;15.77;7.18;;;;;;;7.21;100.00;100868.94;5205826;28;20095;-71
2022/04/25 01:56:35;;;;;;;22.85;8.10;;;;;;;7.17;100.00;100872.88;5199612;28;20036;-70
2022/04/25 01:59:06;;;;;;;14.20;7.72;;;;;;;7.14;100.00;100873.19;5205279;28;20025;-71
2022/04/25 02:01:36;;;;;;;25.33;9.00;;;;;;;7.13;100.00;100868.84;5205593;28;20040;-70
2022/04/25 02:04:07;;;;;;;16.92;7.95;;;;;;;7.10;100.00;100881.63;5205524;28;20028;-70
2022/04/25 02:06:37;;;;;;;21.60;8.70;;;;;;;7.05;100.00;100873.19;5205910;28;20060;-70
2022/04/25 02:09:08;;;;;;;19.10;7.75;;;;;;;6.98;100.00;100878.28;5205622;28;20056;-70
2022/04/25 02:11:39;;;;;;;21.30;9.40;;;;;;;6.91;100.00;100877.13;5205240;28;20079;-70
2022/04/25 02:14:10;;;;;;;20.02;8.70;;;;;;;6.88;100.00;100874.78;5204812;28;20444;-70
2022/04/25 02:16:41;;;;;;;19.67;9.25;;;;;;;6.85;100.00;100875.88;5205680;28;20161;-71
2022/04/25 02:19:11;;;;;;;17.13;9.55;;;;;;;6.79;100.00;100868.47;5205254;28;20104;-70
2022/04/25 02:21:42;;;;;;;24.65;9.90;;;;;;;6.81;100.00;100877.16;5203525;28;20406;-70
2022/04/25 02:24:12;;;;;;;22.58;8.88;;;;;;;6.83;100.00;100880.53;5204780;28;20028;-70
2022/04/25 02:26:43;;;;;;;23.60;9.95;;;;;;;6.75;100.00;100883.06;5205241;28;20061;-70
2022/04/25 02:29:15;;;;;;;22.80;9.45;;;;;;;6.70;100.00;100877.28;5205003;28;20017;-70
2022/04/25 02:31:45;;;;;;;23.27;10.05;;;;;;;6.74;100.00;100881.38;5204904;28;20100;-70
2022/04/25 02:34:16;;;;;;;24.42;9.38;;;;;;;6.70;100.00;100878.13;5204761;28;20108;-70
2022/04/25 02:36:46;;;;;;;20.67;10.05;;;;;;;6.71;100.00;100873.63;5204756;28;20048;-70
2022/04/25 02:39:17;;;;;;;19.55;8.82;;;;;;;6.67;100.00;100875.75;5199748;28;20490;-73
2022/04/25 02:41:47;;;;;;;25.35;8.32;;;;;;;6.76;100.00;100879.41;5205037;28;20026;-71
2022/04/25 02:44:18;;;;;;;20.60;9.32;;;;;;;6.78;100.00;100877.44;5204479;28;20025;-70
2022/04/25 02:46:48;;;;;;;15.90;9.20;;;;;;;6.73;100.00;100885.03;5202484;28;20363;-70
2022/04/25 02:49:19;;;;;;;18.08;9.40;;;;;;;6.67;100.00;100885.56;5204260;28;20399;-72
2022/04/25 02:51:49;;;;;;;22.70;10.02;;;;;;;6.60;100.00;100877.28;5204808;28;20028;-70
2022/04/25 02:54:20;;;;;;;19.75;10.18;;;;;;;6.60;100.00;100879.97;5204731;28;20540;-69
2022/04/25 02:56:50;;;;;;;26.58;11.48;;;;;;;6.62;100.00;100882.47;5204793;28;20021;-69
2022/04/25 02:59:21;;;;;;;23.08;10.27;;;;;;;6.59;100.00;100888.09;5199321;28;20017;-69
2022/04/25 03:01:51;;;;;;;20.08;9.48;;;;;;;6.53;100.00;100886.00;5194908;28;20033;-70
2022/04/25 03:04:22;;;;;;;20.85;10.15;;;;;;;6.47;100.00;100879.38;5201718;28;20112;-69
2022/04/25 03:06:53;;;;;;;20.02;10.02;;;;;;;6.42;100.00;100889.59;5203317;28;20037;-69
2022/04/25 03:09:24;;;;;;;21.85;10.05;;;;;;;6.39;100.00;100887.25;5204198;28;20024;-69
2022/04/25 03:11:54;;;;;;;23.33;11.38;;;;;;;6.35;100.00;100891.16;5203908;28;20053;-69
2022/04/25 03:14:26;;;;;;;22.05;9.93;;;;;;;6.33;100.00;100888.63;5203073;28;20098;-69
2022/04/25 03:16:56;;;;;;;26.73;10.27;;;;;;;6.33;100.00;100888.63;5203888;28;20101;-69
2022/04/25 03:19:27;;;;;;;20.77;10.27;;;;;;;6.27;100.00;100893.66;5204422;28;20112;-69
2022/04/25 03:21:57;;;;;;;26.17;11.38;;;;;;;6.20;100.00;100888.03;5202791;28;20021;-69
2022/04/25 03:24:27;;;;;;;25.02;11.25;;;;;;;6.16;100.00;100891.94;5203552;28;20118;-70
2022/04/25 03:26:58;;;;;;;20.85;10.75;;;;;;;6.14;100.00;100894.75;5203365;28;20068;-69
2022/04/25 03:29:29;;;;;;;23.00;11.07;;;;;;;6.17;100.00;100894.47;5203887;28;20037;-69
2022/04/25 03:32:00;;;;;;;27.05;10.68;;;;;;;6.11;100.00;100888.84;5203583;28;20379;-69
2022/04/25 03:34:30;;;;;;;22.83;11.88;;;;;;;6.10;100.00;100888.03;5202955;28;20083;-70
2022/04/25 03:37:01;;;;;;;21.30;11.40;;;;;;;6.14;100.00;100891.25;5203154;28;20104;-69
2022/04/25 03:39:31;;;;;;;27.23;11.40;;;;;;;6.17;100.00;100894.47;5203287;28;20084;-69
2022/04/25 03:42:02;;;;;;;27.08;10.85;;;;;;;6.20;100.00;100898.69;5203446;28;20075;-69
2022/04/25 03:44:32;;;;;;;27.45;10.63;;;;;;;6.23;100.00;100898.44;5203043;28;20032;-70
2022/04/25 03:47:03;;;;;;;29.15;13.00;;;;;;;6.16;100.00;100894.63;5202686;28;20049;-69
2022/04/25 03:49:34;;;;;;;24.45;11.30;;;;;;;6.10;100.00;100895.16;5197619;28;20116;-69
2022/04/25 03:52:05;;;;;;;27.20;11.98;;;;;;;6.01;100.00;100896.81;5203554;28;20396;-69
2022/04/25 03:57:25;;;;;;;23.42;11.75;;;;;;;5.82;100.00;100899.38;5203237;28;20025;-70
2022/04/25 03:59:55;;;;;;;32.92;12.07;;;;;;;5.75;100.00;100896.41;5197938;28;20026;-69
2022/04/25 04:02:26;;;;;;;29.02;13.85;;;;;;;5.75;100.00;100898.25;5202549;28;20031;-69
2022/04/25 04:04:56;;;;;;;31.08;13.98;;;;;;;5.72;100.00;100902.00;5202926;28;20035;-69
2022/04/25 04:07:27;;;;;;;31.90;12.35;;;;;;;5.64;100.00;100897.34;5202857;28;20432;-70
2022/04/25 04:09:58;;;;;;;27.80;12.30;;;;;;;5.54;100.00;100896.47;5203253;28;20022;-70
2022/04/25 04:12:31;;;;;;;23.92;12.50;;;;;;;5.43;100.00;100905.38;5202374;28;20022;-70
2022/04/25 04:15:05;;;;;;;27.05;12.65;;;;;;;5.34;100.00;100908.81;5198568;28;20084;-69
2022/04/25 04:17:35;;;;;;;26.17;12.80;;;;;;;5.27;100.00;100915.66;5202956;28;20036;-71
2022/04/25 04:20:08;;;;;;;30.58;13.57;;;;;;;5.23;100.00;100914.22;5202791;28;20111;-69
2022/04/25 04:22:40;;;;;;;24.95;12.48;;;;;;;5.18;100.00;100916.44;5193382;28;20226;-69
2022/04/25 04:25:13;;;;;;;31.15;14.45;;;;;;;5.10;100.00;100913.56;5201971;28;20044;-69
2022/04/25 04:27:45;;;;;;;28.20;13.80;;;;;;;5.05;100.00;100913.09;5202645;28;20034;-69
2022/04/25 04:30:17;;;;;;;31.73;14.35;;;;;;;5.01;100.00;100912.50;5202634;28;20025;-69
2022/04/25 04:32:48;;;;;;;31.52;14.23;;;;;;;4.96;100.00;100913.88;5202796;28;20025;-70
2022/04/25 04:38:08;;;;;;;28.15;12.75;;;;;;;4.88;100.00;100919.84;5202942;28;20021;-70
2022/04/25 04:40:38;;;;;;;27.33;13.85;;;;;;;4.86;100.00;100919.94;5202516;28;20036;-68
2022/04/25 04:43:09;;;;;;;28.23;15.00;;;;;;;4.86;100.00;100919.09;5202537;28;20502;-69
2022/04/25 04:45:43;;;;;;;31.73;13.82;;;;;;;4.90;100.00;100924.03;5202577;28;20108;-69
2022/04/25 04:48:13;;;;;;;31.10;14.90;;;;;;;4.97;100.00;100928.84;5206804;28;20031;-70
2022/04/25 04:50:43;;;;;;;38.92;15.70;;;;;;;5.07;100.00;100927.97;5206550;28;20029;-69
2022/04/25 04:53:14;;;;;;;44.30;15.88;;;;;;;5.12;100.00;100938.19;5206835;28;20100;-70
2022/04/25 04:55:44;;;;;;;40.25;17.10;;;;;;;5.14;100.00;100946.91;5206400;28;20045;-69
2022/04/25 04:58:15;;;;;;;36.15;16.50;;;;;;;5.19;100.00;100947.34;5206049;28;20021;-68
2022/04/25 05:00:46;;;;;;;27.80;14.23;;;;;;;5.26;100.00;100943.19;5198219;28;20099;-69
2022/04/25 05:03:16;;;;;;;38.53;15.48;;;;;;;5.54;100.00;100940.88;5206588;28;20483;-69
2022/04/25 05:05:47;;;;;;;41.78;16.13;;;;;;;5.71;100.00;100943.75;5206216;28;20447;-69
2022/04/25 05:08:18;;;;;;;31.80;14.82;;;;;;;5.77;100.00;100953.03;5206569;28;20443;-69
2022/04/25 05:10:48;;;;;;;29.90;14.75;;;;;;;5.82;100.00;100952.63;5205475;28;20029;-69
2022/04/25 05:13:20;;;;;;;32.97;15.15;;;;;;;5.88;100.00;100947.63;5206033;28;20481;-69
2022/04/25 05:15:51;;;;;;;31.90;15.65;;;;;;;5.92;100.00;100949.09;5205881;28;20441;-69
2022/04/25 05:18:21;;;;;;;30.27;15.93;;;;;;;5.99;100.00;100957.38;5205983;28;20104;-69
2022/04/25 05:20:52;;;;;;;37.17;15.88;;;;;;;6.04;100.00;100959.63;5206007;28;20025;-69
2022/04/25 05:23:22;;;;;;;32.15;16.02;;;;;;;6.06;100.00;100957.66;5199339;28;20096;-69
2022/04/25 05:25:54;;;;;;;28.98;15.63;;;;;;;6.12;100.00;100960.63;5204465;28;20060;-69
2022/04/25 05:28:25;;;;;;;31.45;16.42;;;;;;;6.18;100.00;100961.94;5205678;28;20039;-69
2022/04/25 05:30:55;;;;;;;28.48;14.20;;;;;;;6.27;100.00;100961.09;5206270;28;20025;-69
2022/04/25 05:33:26;;;;;;;36.42;17.33;;;;;;;6.39;100.00;100964.53;5206060;28;20032;-69
2022/04/25 05:35:57;;;;;;;37.13;16.05;;;;;;;6.65;100.00;100975.50;5205178;28;20025;-69
2022/04/25 05:38:27;;;;;;;32.03;14.75;;;;;;;6.83;100.00;100981.00;5205710;28;20486;-69
2022/04/25 05:40:58;;;;;;;35.03;16.20;;;;;;;7.06;100.00;100979.75;5205579;28;20113;-69
2022/04/25 05:43:28;;;;;;;31.27;14.95;;;;;;;7.26;100.00;100988.59;5205643;28;20466;-69
2022/04/25 05:45:59;;;;;;;24.95;14.30;;;;;;;7.32;100.00;100989.84;5205488;28;20108;-70
2022/04/25 05:54:07;;;;;;;29.38;13.55;;;;;;;7.68;100.00;100990.94;5205493;28;20041;-72
2022/04/25 05:56:39;;;;;;;28.40;13.75;;;;;;;7.69;100.00;100997.97;5204501;28;20025;-70
2022/04/25 05:59:10;;;;;;;30.30;14.32;;;;;;;7.83;100.00;101002.88;5205136;28;20036;-70
2022/04/25 06:01:40;;;;;;;28.88;14.25;;;;;;;7.84;100.00;100998.38;5200372;28;20471;-70
2022/04/25 06:04:11;;;;;;;28.55;14.27;;;;;;;7.88;100.00;101003.28;5205193;28;20033;-70
2022/04/25 06:06:42;;;;;;;29.25;13.55;;;;;;;8.11;100.00;101000.22;5213563;28;20098;-70
2022/04/25 06:09:12;;;;;;;28.90;13.20;;;;;;;8.41;100.00;101002.66;5204820;28;20112;-70
2022/04/25 06:11:44;;;;;;;29.45;13.43;;;;;;;8.44;100.00;101006.88;5204882;28;20025;-70
2022/04/25 06:14:15;;;;;;;32.88;13.50;;;;;;;8.45;100.00;101003.22;5204781;28;20132;-69
2022/04/25 06:16:45;;;;;;;28.27;13.13;;;;;;;8.62;100.00;100998.88;5205221;28;20526;-70
2022/04/25 06:19:15;;;;;;;29.52;13.88;;;;;;;8.70;100.00;101005.19;5205147;28;20471;-70
2022/04/25 06:21:46;;;;;;;29.92;13.43;;;;;;;8.68;100.00;100999.13;5204561;28;20612;-70
2022/04/25 06:24:17;;;;;;;28.10;13.85;;;;;;;8.78;100.00;101007.09;5195321;28;20535;-70
2022/04/25 06:26:49;;;;;;;28.27;12.77;;;;;;;8.79;100.00;101006.97;5204836;28;20052;-69
2022/04/25 06:29:20;;;;;;;29.58;13.27;;;;;;;8.70;100.00;101004.34;5204841;28;20064;-70
2022/04/25 06:31:50;;;;;;;28.83;13.98;;;;;;;8.87;100.00;101006.19;5205312;28;20049;-70
2022/04/25 06:34:21;;;;;;;28.58;13.90;;;;;;;9.28;100.00;101009.25;5203476;28;20101;-70
2022/04/25 06:36:51;;;;;;;32.03;13.52;;;;;;;10.05;100.00;101003.13;5204268;28;20671;-70
2022/04/25 06:39:22;;;;;;;24.33;12.88;;;;;;;10.94;100.00;101004.50;5199660;28;20062;-70
2022/04/25 06:41:52;;;;;;;22.90;12.07;;;;;;;11.80;100.00;100998.66;5204495;28;20026;-70
2022/04/25 06:44:22;;;;;;;19.65;10.77;;;;;;;12.42;100.00;101001.53;5204057;28;20057;-70
2022/04/25 06:46:53;;;;;;;22.45;9.95;;;;;;;13.11;100.00;101001.66;5204333;28;20029;-70
2022/04/25 06:49:24;;;;;;;20.30;11.25;;;;;;;12.96;100.00;101004.28;5204355;28;20076;-70
2022/04/25 06:51:58;;;;;;;21.00;11.23;;;;;;;13.38;100.00;100994.91;5204233;28;20474;-70
2022/04/25 06:54:30;;;;;;;24.75;11.57;;;;;;;13.54;100.00;101009.25;5204430;28;20546;-70
2022/04/25 06:57:02;;;;;;;23.17;11.77;;;;;;;13.47;100.00;101006.47;5204144;28;20071;-70
2022/04/25 06:59:33;;;;;;;19.83;11.25;;;;;;;13.69;100.00;101007.44;5203050;28;20056;-70
2022/04/25 07:02:04;;;;;;;21.50;11.70;;;;;;;13.83;100.00;101006.63;5202554;28;20029;-70
2022/04/25 07:04:34;;;;;;;20.55;12.23;;;;;;;14.12;100.00;101005.00;5196257;28;20029;-71
2022/04/25 07:07:05;;;;;;;21.48;11.85;;;;;;;14.32;100.00;101016.91;5203941;28;20112;-71
2022/04/25 07:09:35;;;;;;;22.73;11.40;;;;;;;14.32;100.00;101011.50;5202904;28;20044;-71
2022/04/25 07:12:06;;;;;;;21.58;11.75;;;;;;;14.71;100.00;101018.50;5203879;28;20017;-71
2022/04/25 07:14:37;;;;;;;20.30;11.57;;;;;;;15.26;100.00;101012.47;5202633;28;20039;-71
2022/04/25 07:17:07;;;;;;;18.88;11.48;;;;;;;15.25;100.00;101016.16;5203922;28;20025;-71
2022/04/25 07:19:39;;;;;;;16.42;10.40;;;;;;;15.63;100.00;101024.03;5203899;28;20037;-71
2022/04/25 07:30:34;;;;;;;21.73;12.52;;;;;;;12.31;100.00;101027.97;5203900;28;20025;-71
2022/04/25 07:33:05;;;;;;;25.60;14.48;;;;;;;12.02;100.00;101031.25;5203876;28;20021;-70
2022/04/25 07:35:36;;;;;;;27.33;13.20;;;;;;;11.70;100.00;101034.75;5203172;28;20032;-70
2022/04/25 07:38:07;;;;;;;24.70;13.10;;;;;;;11.26;100.00;101035.09;5203269;28;20029;-70
2022/04/25 07:40:41;;;;;;;29.20;14.25;;;;;;;11.16;100.00;101032.56;5203534;28;20032;-70
2022/04/25 07:43:11;;;;;;;26.80;15.38;;;;;;;10.97;100.00;101040.91;5203364;28;20037;-70
2022/04/25 07:45:42;;;;;;;31.80;14.85;;;;;;;10.96;100.00;101042.75;5203138;28;20487;-70
2022/04/25 07:48:12;;;;;;;28.10;15.30;;;;;;;11.30;100.00;101039.97;5203583;28;20171;-70
2022/04/25 07:50:44;;;;;;;34.10;15.02;;;;;;;11.32;100.00;101039.81;5203069;28;20036;-70
2022/04/25 07:53:14;;;;;;;26.92;14.75;;;;;;;11.22;100.00;101042.66;5202757;28;20466;-70
2022/04/25 07:55:45;;;;;;;28.80;14.50;;;;;;;11.24;100.00;101047.84;5203131;28;20033;-70
2022/04/25 07:58:15;;;;;;;31.17;14.50;;;;;;;11.26;100.00;101044.00;5203284;28;20029;-71
2022/04/25 08:00:46;;;;;;;35.30;14.63;;;;;;;11.33;100.00;101045.00;5192939;28;20048;-70
2022/04/25 08:03:17;;;;;;;31.42;14.43;;;;;;;11.54;100.00;101044.50;5191882;28;20116;-69
2022/04/25 08:05:47;;;;;;;27.40;15.15;;;;;;;11.53;100.00;101042.00;5202339;28;20029;-70
2022/04/25 08:08:18;;;;;;;24.13;15.05;;;;;;;11.75;100.00;101046.72;5203229;28;20090;-70
2022/04/25 08:10:48;;;;;;;34.20;16.00;;;;;;;11.96;100.00;101050.75;5203164;28;20075;-70
2022/04/25 08:18:58;;;;;;;32.92;16.00;;;;;;;12.30;100.00;101058.56;5202859;28;20025;-70
2022/04/25 08:21:28;;;;;;;26.25;14.50;;;;;;;12.95;100.00;101056.47;5202766;28;20025;-70
2022/04/25 08:23:59;;;;;;;28.45;15.05;;;;;;;13.27;100.00;101053.78;5202364;28;20033;-71
2022/04/25 08:26:29;;;;;;;28.50;15.23;;;;;;;13.47;100.00;101060.38;5202300;28;20039;-71
2022/04/25 08:29:00;;;;;;;28.23;16.00;;;;;;;13.57;100.00;101057.44;5202866;28;20025;-71
2022/04/25 08:31:32;;;;;;;35.42;16.13;;;;;;;13.38;100.00;101054.19;5203094;28;20227;-70
2022/04/25 08:34:04;;;;;;;31.63;16.48;;;;;;;13.15;100.00;101054.16;5203017;28;20108;-70
2022/04/25 08:36:36;;;;;;;26.92;14.43;;;;;;;13.00;100.00;101064.00;5203148;28;20394;-70
2022/04/25 08:39:06;;;;;;;27.42;14.50;;;;;;;12.88;100.00;101068.09;5202200;28;21861;-71
2022/04/25 08:41:41;;;;;;;28.15;15.30;;;;;;;12.96;100.00;101063.53;5202725;28;20060;-71
2022/04/25 08:44:15;;;;;;;32.10;14.93;;;;;;;12.90;100.00;101064.25;5202392;28;20355;-70
2022/04/25 08:46:50;;;;;;;25.17;14.40;;;;;;;12.88;100.00;101066.25;5201489;28;20080;-71
2022/04/25 08:49:22;;;;;;;30.85;14.23;;;;;;;12.91;100.00;101073.16;5202541;28;20034;-71
2022/04/25 08:51:58;;;;;;;26.08;13.98;;;;;;;13.36;100.00;101066.19;5201959;28;20029;-71
2022/04/25 08:54:31;;;;;;;22.17;12.63;;;;;;;13.13;100.00;101071.50;5202612;28;20032;-70
2022/04/25 08:57:03;;;;;;;19.35;11.48;;;;;;;13.35;100.00;101068.00;5202625;28;20035;-70
2022/04/25 08:59:35;;;;;;;25.67;13.68;;;;;;;12.95;100.00;101075.31;5202558;28;20032;-71
2022/04/25 09:02:07;;;;;;;25.05;13.13;;;;;;;13.15;100.00;101081.09;5201290;28;20040;-70
2022/04/25 09:04:38;;;;;;;22.00;13.32;;;;;;;13.45;100.00;101079.41;5201952;28;20459;-70
2022/04/25 09:07:09;;;;;;;19.98;12.45;;;;;;;13.81;100.00;101075.28;5202345;28;20025;-70
2022/04/25 09:09:40;;;;;;;24.58;12.98;;;;;;;14.40;100.00;101078.88;5202789;28;20021;-70
2022/04/25 09:12:14;;;;;;;23.98;12.00;;;;;;;14.58;100.00;101088.50;5202448;28;20021;-70
2022/04/25 09:14:45;;;;;;;19.90;11.48;;;;;;;15.28;100.00;101083.34;5201406;28;20032;-71
2022/04/25 09:17:16;;;;;;;21.48;12.02;;;;;;;15.16;100.00;101087.59;5202566;28;20095;-71
2022/04/25 09:19:47;;;;;;;23.80;11.95;;;;;;;15.69;100.00;101082.75;5202302;28;20116;-72
2022/04/25 09:22:30;;;;;;;17.42;10.40;;;;;;;16.17;100.00;101082.97;5202616;28;20021;-71
2022/04/25 09:25:17;;;;;;;19.50;11.27;;;;;;;16.68;100.00;101082.63;5200040;28;20026;-71
2022/04/25 09:28:08;;;;;;;16.98;10.45;;;;;;;17.22;92.48;101087.28;5202295;28;20030;-71
2022/04/25 09:30:38;;;;;;;19.60;9.70;;;;;;;16.74;91.80;101084.56;5202634;28;20344;-71
2022/04/25 09:33:27;;;;;;;15.07;10.25;;;;;;;16.36;97.08;101078.69;5204891;28;20067;-71
2022/04/25 09:35:58;;;;;;;17.95;8.55;;;;;;;15.26;95.72;101081.88;5205677;28;20053;-71
2022/04/25 09:38:32;;;;;;;14.45;8.43;;;;;;;14.94;99.79;101078.59;5206149;28;20466;-71
2022/04/25 09:41:05;;;;;;;12.77;8.15;;;;;;;14.89;100.00;101080.19;5206089;28;20076;-71
2022/04/25 09:43:38;;;;;;;16.13;9.05;;;;;;;14.85;100.00;101079.72;5205611;28;20064;-71
2022/04/25 09:46:12;;;;;;;12.80;8.35;;;;;;;15.06;100.00;101081.66;5205604;28;20355;-71
2022/04/25 09:49:04;;;;;;;14.18;9.02;;;;;;;14.74;100.00;101091.00;5205784;28;20029;-70
2022/04/25 09:51:34;;;;;;;14.80;7.97;;;;;;;14.11;100.00;101086.97;5205809;28;20079;-71
2022/04/25 09:54:07;;;;;;;17.70;8.63;;;;;;;13.98;100.00;101084.88;5198599;28;20029;-71
2022/04/25 09:56:38;;;;;;;19.92;8.02;;;;;;;14.06;100.00;101084.81;5205972;28;20025;-71
2022/04/25 09:59:10;;;;;;;13.10;8.25;;;;;;;14.15;100.00;101082.84;5206045;28;20029;-70
2022/04/25 10:01:43;;;;;;;19.38;8.80;;;;;;;14.19;100.00;101087.69;5205622;28;20083;-71
2022/04/25 10:04:32;;;;;;;15.40;9.50;;;;;;;14.11;100.00;101089.66;5205500;28;20037;-70
2022/04/25 10:07:05;;;;;;;15.48;9.13;;;;;;;14.54;100.00;101084.50;5205177;28;20040;-70
2022/04/25 10:09:35;;;;;;;14.65;9.95;;;;;;;15.35;100.00;101080.72;5205455;28;20022;-71
2022/04/25 10:12:06;;;;;;;18.42;10.18;;;;;;;16.60;100.00;101090.91;5205443;28;20071;-71
2022/04/25 10:14:37;;;;;;;14.90;9.88;;;;;;;17.13;100.00;101091.19;5204786;28;20021;-70
2022/04/25 10:17:08;;;;;;;18.10;10.15;;;;;;;16.99;99.59;101094.91;5203816;28;20513;-70
2022/04/25 10:19:40;;;;;;;14.82;10.82;;;;;;;16.74;100.00;101090.00;5203990;28;20148;-71
2022/04/25 10:22:12;;;;;;;21.20;11.00;;;;;;;15.96;100.00;101100.03;5205032;28;20017;-71
2022/04/25 10:24:44;;;;;;;17.23;10.68;;;;;;;15.35;100.00;101094.22;5204823;28;20029;-71
2022/04/25 10:27:17;;;;;;;15.65;10.02;;;;;;;15.12;100.00;101104.38;5202136;28;20132;-71
2022/04/25 10:29:51;;;;;;;16.98;11.15;;;;;;;14.87;100.00;101099.28;5204702;28;20402;-71
2022/04/25 10:32:23;;;;;;;17.45;10.77;;;;;;;14.52;100.00;101100.06;5205100;28;20375;-71
2022/04/25 10:34:59;;;;;;;18.38;11.60;;;;;;;14.56;100.00;101104.91;5204728;28;20029;-71
2022/04/25 10:37:45;;;;;;;18.85;12.55;;;;;;;14.47;100.00;101103.28;5204986;28;20116;-71
2022/04/25 10:44:10;;;;;;;20.40;12.63;;;;;;;13.90;100.00;101106.50;5204837;28;20033;-71
2022/04/25 10:49:56;;;;;;;20.38;13.15;;;;;;;14.09;100.00;101099.78;5204754;28;20025;-71
2022/04/25 10:55:38;;;;;;;25.10;12.85;;;;;;;14.08;100.00;101106.19;5204499;28;20025;-70
2022/04/25 10:58:10;;;;;;;23.25;13.82;;;;;;;14.08;100.00;101107.03;5204833;28;20440;-71
2022/04/25 11:00:45;;;;;;;28.17;14.50;;;;;;;14.21;100.00;101109.97;5204070;28;20025;-71
2022/04/25 11:03:19;;;;;;;20.63;12.65;;;;;;;14.16;100.00;101117.75;5204452;28;20455;-70
2022/04/25 11:06:09;;;;;;;21.20;11.52;;;;;;;13.79;100.00;101112.34;5203923;28;20033;-71
2022/04/25 11:08:49;;;;;;;24.23;13.32;;;;;;;13.71;100.00;101113.28;5204462;28;20151;-70
2022/04/25 11:11:21;;;;;;;26.13;15.93;;;;;;;13.81;100.00;101121.13;5204196;28;20068;-70
2022/04/25 11:13:51;;;;;;;27.05;15.68;;;;;;;13.88;100.00;101113.97;5202755;28;20021;-70
2022/04/25 11:16:25;;;;;;;33.97;16.23;;;;;;;13.99;100.00;101122.44;5204202;28;20445;-71
2022/04/25 11:19:19;;;;;;;25.27;15.05;;;;;;;14.44;100.00;101122.53;5203907;28;20036;-70
2022/04/25 11:21:55;;;;;;;28.08;16.02;;;;;;;14.68;100.00;101133.09;5203542;28;20025;-71
2022/04/25 11:24:45;;;;;;;30.02;16.85;;;;;;;14.93;100.00;101124.72;5203753;28;20035;-71
2022/04/25 11:27:16;;;;;;;29.50;16.35;;;;;;;15.31;100.00;101132.66;5201847;28;20029;-70
2022/04/25 11:30:25;;;;;;;30.65;16.65;;;;;;;15.39;100.00;101130.69;5204068;28;20360;-70
2022/04/25 11:33:14;;;;;;;26.30;15.95;;;;;;;15.18;100.00;101136.88;5204072;28;20037;-71
2022/04/25 11:35:44;;;;;;;28.35;16.23;;;;;;;14.82;100.00;101130.59;5203732;28;20051;-71
2022/04/25 11:39:50;;;;;;;31.02;16.25;;;;;;;14.51;100.00;101137.03;5203339;28;20545;-71
2022/04/25 11:41:05;;;;;;;28.83;15.88;;;;;;;14.92;100.00;101137.38;5203520;28;20048;-71
2022/04/25 11:43:36;;;;;;;26.60;14.43;;;;;;;15.58;100.00;101137.34;5204100;28;20025;-71
2022/04/25 11:46:07;;;;;;;25.25;14.27;;;;;;;16.09;100.00;101139.94;5203170;28;20028;-71
2022/04/25 11:48:37;;;;;;;26.42;14.40;;;;;;;16.28;100.00;101133.00;5203451;28;20052;-70
2022/04/25 11:51:08;;;;;;;21.77;13.52;;;;;;;16.31;100.00;101141.59;5203237;28;20108;-71
2022/04/25 11:53:39;;;;;;;22.52;13.48;;;;;;;15.89;100.00;101147.03;5203899;28;20029;-71
2022/04/25 11:56:25;;;;;;;21.75;13.75;;;;;;;15.17;100.00;101142.47;5191071;28;20022;-71
2022/04/25 11:58:57;;;;;;;24.17;14.35;;;;;;;14.93;100.00;101149.03;5203159;28;20361;-70
2022/04/25 12:01:47;;;;;;;23.98;13.98;;;;;;;14.89;100.00;101142.31;5202891;28;20044;-71
2022/04/25 12:04:39;;;;;;;25.75;14.45;;;;;;;15.30;100.00;101142.63;5202685;28;20394;-71
2022/04/25 12:07:11;;;;;;;19.70;12.88;;;;;;;15.91;100.00;101142.25;5202983;28;20094;-71
2022/04/25 12:18:28;;;;;;;22.35;11.85;;;;;;;15.61;100.00;101145.03;5202265;28;20395;-71
2022/04/25 12:21:18;;;;;;;19.73;12.80;;;;;;;15.89;100.00;101137.03;5194703;28;20029;-71
2022/04/25 12:23:52;;;;;;;19.95;11.95;;;;;;;16.34;100.00;101143.03;5199903;28;20069;-71